sensor_id;sensor_type;location;lat;lon;timestamp;pressure;altitude;pressure_sealevel;temperature;humidity
216;BME280;64590;48.81286795;9.14184224;2022-12-18T00:00:07;99381.66;;;-6.45;68.67
216;BME280;64590;48.81286795;9.14184224;2022-12-18T00:02:39;99379.84;;;-6.35;67.96
216;BME280;64590;48.81286795;9.14184224;2022-12-18T00:05:07;99385.63;;;-6.53;68.37
216;BME280;64590;48.81286795;9.14184224;2022-12-18T00:07:33;99378.34;;;-6.52;68.95
216;BME280;64590;48.81286795;9.14184224;2022-12-18T00:10:00;99380.31;;;-6.43;68.11
216;BME280;64590;48.81286795;9.14184224;2022-12-18T00:12:26;99387.38;;;-6.42;69.40
216;BME280;64590;48.81286795;9.14184224;2022-12-18T00:14:54;99382.59;;;-6.30;67.04
216;BME280;64590;48.81286795;9.14184224;2022-12-18T00:17:21;99388.28;;;-6.26;67.38
216;BME280;64590;48.81286795;9.14184224;2022-12-18T00:19:47;99390.31;;;-6.43;68.04
216;BME280;64590;48.81286795;9.14184224;2022-12-18T00:22:14;99392.41;;;-6.50;68.16
216;BME280;64590;48.81286795;9.14184224;2022-12-18T00:24:44;99390.09;;;-6.91;68.10
216;BME280;64590;48.81286795;9.14184224;2022-12-18T00:27:10;99378.13;;;-6.73;69.09
216;BME280;64590;48.81286795;9.14184224;2022-12-18T00:29:37;99369.69;;;-6.55;67.69
216;BME280;64590;48.81286795;9.14184224;2022-12-18T00:32:05;99379.50;;;-6.97;68.12
216;BME280;64590;48.81286795;9.14184224;2022-12-18T00:34:32;99390.91;;;-6.90;68.41
216;BME280;64590;48.81286795;9.14184224;2022-12-18T00:36:58;99389.16;;;-7.01;69.48
216;BME280;64590;48.81286795;9.14184224;2022-12-18T00:39:25;99396.47;;;-6.75;67.98
216;BME280;64590;48.81286795;9.14184224;2022-12-18T00:41:51;99408.34;;;-6.98;68.10
216;BME280;64590;48.81286795;9.14184224;2022-12-18T00:44:36;99399.41;;;-7.03;68.58
216;BME280;64590;48.81286795;9.14184224;2022-12-18T00:47:02;99395.31;;;-7.06;69.71
216;BME280;64590;48.81286795;9.14184224;2022-12-18T00:49:30;99398.63;;;-6.99;67.86
216;BME280;64590;48.81286795;9.14184224;2022-12-18T00:51:57;99397.59;;;-7.20;68.28
216;BME280;64590;48.81286795;9.14184224;2022-12-18T00:54:24;99403.22;;;-6.99;68.22
216;BME280;64590;48.81286795;9.14184224;2022-12-18T00:56:50;99388.13;;;-7.39;69.24
216;BME280;64590;48.81286795;9.14184224;2022-12-18T00:59:18;99394.44;;;-7.12;68.48
216;BME280;64590;48.81286795;9.14184224;2022-12-18T01:01:44;99399.09;;;-7.29;68.14
216;BME280;64590;48.81286795;9.14184224;2022-12-18T01:04:11;99393.25;;;-6.99;69.03
216;BME280;64590;48.81286795;9.14184224;2022-12-18T01:06:39;99393.97;;;-6.81;68.57
216;BME280;64590;48.81286795;9.14184224;2022-12-18T01:09:06;99393.22;;;-6.77;67.80
216;BME280;64590;48.81286795;9.14184224;2022-12-18T01:11:36;99391.84;;;-7.45;68.61
216;BME280;64590;48.81286795;9.14184224;2022-12-18T01:14:03;99396.00;;;-7.93;70.47
216;BME280;64590;48.81286795;9.14184224;2022-12-18T01:16:30;99397.41;;;-7.90;71.15
216;BME280;64590;48.81286795;9.14184224;2022-12-18T01:18:57;99386.50;;;-7.62;70.66
216;BME280;64590;48.81286795;9.14184224;2022-12-18T01:21:26;99391.81;;;-7.28;70.28
216;BME280;64590;48.81286795;9.14184224;2022-12-18T01:23:55;99391.38;;;-7.59;69.25
216;BME280;64590;48.81286795;9.14184224;2022-12-18T01:26:24;99395.38;;;-7.45;68.92
216;BME280;64590;48.81286795;9.14184224;2022-12-18T01:28:51;99410.53;;;-7.94;69.70
216;BME280;64590;48.81286795;9.14184224;2022-12-18T01:31:21;99402.59;;;-7.67;69.83
216;BME280;64590;48.81286795;9.14184224;2022-12-18T01:33:48;99398.41;;;-7.58;69.27
216;BME280;64590;48.81286795;9.14184224;2022-12-18T01:36:18;99401.09;;;-7.58;70.55
216;BME280;64590;48.81286795;9.14184224;2022-12-18T01:38:45;99395.13;;;-7.21;69.13
216;BME280;64590;48.81286795;9.14184224;2022-12-18T01:41:14;99400.97;;;-7.29;69.19
216;BME280;64590;48.81286795;9.14184224;2022-12-18T01:43:49;99406.97;;;-7.44;71.10
216;BME280;64590;48.81286795;9.14184224;2022-12-18T01:46:17;99407.34;;;-6.92;68.94
216;BME280;64590;48.81286795;9.14184224;2022-12-18T01:48:44;99397.63;;;-7.15;69.32
216;BME280;64590;48.81286795;9.14184224;2022-12-18T01:51:13;99413.13;;;-6.83;68.31
216;BME280;64590;48.81286795;9.14184224;2022-12-18T01:53:41;99409.16;;;-6.75;68.48
216;BME280;64590;48.81286795;9.14184224;2022-12-18T01:56:13;99410.47;;;-6.78;66.62
216;BME280;64590;48.81286795;9.14184224;2022-12-18T01:58:52;99415.75;;;-6.66;68.53
216;BME280;64590;48.81286795;9.14184224;2022-12-18T02:01:21;99401.19;;;-6.87;69.36
216;BME280;64590;48.81286795;9.14184224;2022-12-18T02:03:49;99398.03;;;-6.52;69.18
216;BME280;64590;48.81286795;9.14184224;2022-12-18T02:06:18;99387.84;;;-6.50;68.57
216;BME280;64590;48.81286795;9.14184224;2022-12-18T02:08:52;99390.28;;;-6.48;69.30
216;BME280;64590;48.81286795;9.14184224;2022-12-18T02:11:33;99390.81;;;-6.46;70.15
216;BME280;64590;48.81286795;9.14184224;2022-12-18T02:14:08;99397.50;;;-6.54;70.04
216;BME280;64590;48.81286795;9.14184224;2022-12-18T02:16:43;99396.88;;;-6.34;70.37
216;BME280;64590;48.81286795;9.14184224;2022-12-18T02:19:26;99397.09;;;-6.09;70.25
216;BME280;64590;48.81286795;9.14184224;2022-12-18T02:22:02;99401.16;;;-6.38;69.81
216;BME280;64590;48.81286795;9.14184224;2022-12-18T02:24:37;99408.34;;;-6.49;72.09
216;BME280;64590;48.81286795;9.14184224;2022-12-18T02:27:10;99403.22;;;-6.18;70.47
216;BME280;64590;48.81286795;9.14184224;2022-12-18T02:29:40;99398.09;;;-6.20;69.79
216;BME280;64590;48.81286795;9.14184224;2022-12-18T02:32:12;99410.22;;;-6.22;70.09
216;BME280;64590;48.81286795;9.14184224;2022-12-18T02:34:41;99414.56;;;-5.84;69.78
216;BME280;64590;48.81286795;9.14184224;2022-12-18T02:37:15;99399.50;;;-6.12;70.25
216;BME280;64590;48.81286795;9.14184224;2022-12-18T02:39:44;99409.38;;;-5.96;70.35
216;BME280;64590;48.81286795;9.14184224;2022-12-18T02:42:16;99410.50;;;-6.19;70.55
216;BME280;64590;48.81286795;9.14184224;2022-12-18T02:44:46;99405.59;;;-5.95;70.04
216;BME280;64590;48.81286795;9.14184224;2022-12-18T02:47:19;99412.81;;;-5.63;68.70
216;BME280;64590;48.81286795;9.14184224;2022-12-18T02:49:53;99422.22;;;-6.08;67.58
216;BME280;64590;48.81286795;9.14184224;2022-12-18T02:52:29;99421.16;;;-6.39;69.36
216;BME280;64590;48.81286795;9.14184224;2022-12-18T02:55:11;99425.06;;;-6.25;68.82
216;BME280;64590;48.81286795;9.14184224;2022-12-18T02:57:49;99420.38;;;-6.35;68.84
216;BME280;64590;48.81286795;9.14184224;2022-12-18T03:00:21;99429.50;;;-6.41;68.67
216;BME280;64590;48.81286795;9.14184224;2022-12-18T03:02:54;99416.13;;;-6.26;68.29
216;BME280;64590;48.81286795;9.14184224;2022-12-18T03:05:28;99410.16;;;-6.28;69.17
216;BME280;64590;48.81286795;9.14184224;2022-12-18T03:07:59;99410.59;;;-6.41;69.92
216;BME280;64590;48.81286795;9.14184224;2022-12-18T03:10:32;99411.22;;;-6.34;70.63
216;BME280;64590;48.81286795;9.14184224;2022-12-18T03:13:04;99422.22;;;-6.08;70.27
216;BME280;64590;48.81286795;9.14184224;2022-12-18T03:15:35;99414.56;;;-6.21;69.68
216;BME280;64590;48.81286795;9.14184224;2022-12-18T03:18:10;99438.09;;;-6.44;70.52
216;BME280;64590;48.81286795;9.14184224;2022-12-18T03:20:42;99441.38;;;-6.42;71.86
216;BME280;64590;48.81286795;9.14184224;2022-12-18T03:23:16;99429.25;;;-6.39;70.96
216;BME280;64590;48.81286795;9.14184224;2022-12-18T03:25:47;99422.66;;;-6.21;71.39
216;BME280;64590;48.81286795;9.14184224;2022-12-18T03:28:20;99420.22;;;-6.23;69.76
216;BME280;64590;48.81286795;9.14184224;2022-12-18T03:30:55;99430.59;;;-6.10;69.74
216;BME280;64590;48.81286795;9.14184224;2022-12-18T03:33:27;99441.22;;;-6.57;70.76
216;BME280;64590;48.81286795;9.14184224;2022-12-18T03:35:56;99447.50;;;-6.51;71.51
216;BME280;64590;48.81286795;9.14184224;2022-12-18T03:38:23;99451.84;;;-6.45;71.20
216;BME280;64590;48.81286795;9.14184224;2022-12-18T03:40:58;99438.16;;;-6.39;71.90
216;BME280;64590;48.81286795;9.14184224;2022-12-18T03:43:35;99430.94;;;-6.01;71.40
216;BME280;64590;48.81286795;9.14184224;2022-12-18T03:46:08;99434.00;;;-6.51;72.34
216;BME280;64590;48.81286795;9.14184224;2022-12-18T03:48:41;99437.97;;;-6.59;71.45
216;BME280;64590;48.81286795;9.14184224;2022-12-18T03:51:17;99435.81;;;-6.57;72.68
216;BME280;64590;48.81286795;9.14184224;2022-12-18T03:53:52;99440.44;;;-6.52;71.87
216;BME280;64590;48.81286795;9.14184224;2022-12-18T03:56:25;99438.09;;;-6.44;72.05
216;BME280;64590;48.81286795;9.14184224;2022-12-18T03:58:56;99441.22;;;-6.79;73.00
216;BME280;64590;48.81286795;9.14184224;2022-12-18T04:01:30;99433.94;;;-6.57;72.88
216;BME280;64590;48.81286795;9.14184224;2022-12-18T04:03:59;99429.34;;;-6.29;70.67
216;BME280;64590;48.81286795;9.14184224;2022-12-18T04:06:29;99430.81;;;-6.16;68.43
216;BME280;64590;48.81286795;9.14184224;2022-12-18T04:08:57;99434.97;;;-6.85;68.51
216;BME280;64590;48.81286795;9.14184224;2022-12-18T04:11:25;99433.03;;;-6.62;68.85
216;BME280;64590;48.81286795;9.14184224;2022-12-18T04:13:57;99423.09;;;-6.84;69.63
216;BME280;64590;48.81286795;9.14184224;2022-12-18T04:16:24;99423.91;;;-7.27;69.63
216;BME280;64590;48.81286795;9.14184224;2022-12-18T04:18:54;99431.56;;;-7.19;71.29
216;BME280;64590;48.81286795;9.14184224;2022-12-18T04:21:23;99434.97;;;-6.85;68.87
216;BME280;64590;48.81286795;9.14184224;2022-12-18T04:23:51;99421.59;;;-7.18;69.30
216;BME280;64590;48.81286795;9.14184224;2022-12-18T04:26:20;99436.63;;;-6.78;68.89
216;BME280;64590;48.81286795;9.14184224;2022-12-18T04:28:59;99436.34;;;-7.26;70.13
216;BME280;64590;48.81286795;9.14184224;2022-12-18T04:31:27;99448.13;;;-6.88;69.66
216;BME280;64590;48.81286795;9.14184224;2022-12-18T04:33:54;99448.00;;;-6.98;70.29
216;BME280;64590;48.81286795;9.14184224;2022-12-18T04:36:21;99456.72;;;-7.13;70.30
216;BME280;64590;48.81286795;9.14184224;2022-12-18T04:38:48;99459.06;;;-7.00;70.88
216;BME280;64590;48.81286795;9.14184224;2022-12-18T04:41:18;99450.28;;;-6.90;71.23
216;BME280;64590;48.81286795;9.14184224;2022-12-18T04:43:47;99443.69;;;-6.77;71.06
216;BME280;64590;48.81286795;9.14184224;2022-12-18T04:46:14;99438.09;;;-6.71;69.77
216;BME280;64590;48.81286795;9.14184224;2022-12-18T04:48:41;99431.75;;;-6.60;69.59
216;BME280;64590;48.81286795;9.14184224;2022-12-18T04:51:08;99424.94;;;-6.62;70.51
216;BME280;64590;48.81286795;9.14184224;2022-12-18T04:53:34;99424.41;;;-6.64;70.90
216;BME280;64590;48.81286795;9.14184224;2022-12-18T04:56:03;99425.75;;;-6.62;70.63
216;BME280;64590;48.81286795;9.14184224;2022-12-18T04:58:30;99415.28;;;-6.58;70.95
216;BME280;64590;48.81286795;9.14184224;2022-12-18T05:00:56;99421.69;;;-6.37;71.01
216;BME280;64590;48.81286795;9.14184224;2022-12-18T05:03:24;99436.28;;;-6.38;69.88
216;BME280;64590;48.81286795;9.14184224;2022-12-18T05:05:51;99428.63;;;-6.19;71.23
216;BME280;64590;48.81286795;9.14184224;2022-12-18T05:08:18;99430.31;;;-6.40;71.87
216;BME280;64590;48.81286795;9.14184224;2022-12-18T05:10:45;99420.69;;;-6.31;71.02
216;BME280;64590;48.81286795;9.14184224;2022-12-18T05:13:11;99431.13;;;-6.67;71.18
216;BME280;64590;48.81286795;9.14184224;2022-12-18T05:15:38;99424.56;;;-6.49;71.29
216;BME280;64590;48.81286795;9.14184224;2022-12-18T05:18:05;99420.44;;;-6.57;70.94
216;BME280;64590;48.81286795;9.14184224;2022-12-18T05:20:33;99430.25;;;-6.45;70.56
216;BME280;64590;48.81286795;9.14184224;2022-12-18T05:23:00;99443.69;;;-6.77;71.20
216;BME280;64590;48.81286795;9.14184224;2022-12-18T05:25:26;99440.59;;;-6.64;70.56
216;BME280;64590;48.81286795;9.14184224;2022-12-18T05:27:53;99456.09;;;-6.98;71.43
216;BME280;64590;48.81286795;9.14184224;2022-12-18T05:30:19;99461.00;;;-6.51;70.42
216;BME280;64590;48.81286795;9.14184224;2022-12-18T05:32:46;99450.09;;;-6.84;70.66
216;BME280;64590;48.81286795;9.14184224;2022-12-18T05:35:13;99461.75;;;-6.56;69.74
216;BME280;64590;48.81286795;9.14184224;2022-12-18T05:37:40;99467.78;;;-6.93;69.84
216;BME280;64590;48.81286795;9.14184224;2022-12-18T05:40:08;99471.25;;;-6.75;69.41
216;BME280;64590;48.81286795;9.14184224;2022-12-18T05:42:35;99462.97;;;-6.91;69.62
216;BME280;64590;48.81286795;9.14184224;2022-12-18T05:45:02;99466.38;;;-6.95;70.73
216;BME280;64590;48.81286795;9.14184224;2022-12-18T05:47:29;99458.75;;;-6.81;70.50
216;BME280;64590;48.81286795;9.14184224;2022-12-18T05:49:55;99465.47;;;-6.84;69.88
216;BME280;64590;48.81286795;9.14184224;2022-12-18T05:52:22;99453.19;;;-6.70;69.78
216;BME280;64590;48.81286795;9.14184224;2022-12-18T05:54:50;99440.66;;;-6.81;69.88
216;BME280;64590;48.81286795;9.14184224;2022-12-18T05:57:16;99436.19;;;-6.70;69.28
216;BME280;64590;48.81286795;9.14184224;2022-12-18T05:59:43;99449.03;;;-6.82;69.19
216;BME280;64590;48.81286795;9.14184224;2022-12-18T06:02:10;99445.31;;;-6.76;69.10
216;BME280;64590;48.81286795;9.14184224;2022-12-18T06:04:36;99450.34;;;-6.85;69.37
216;BME280;64590;48.81286795;9.14184224;2022-12-18T06:07:03;99451.13;;;-7.28;70.48
216;BME280;64590;48.81286795;9.14184224;2022-12-18T06:09:30;99455.06;;;-7.36;70.59
216;BME280;64590;48.81286795;9.14184224;2022-12-18T06:11:58;99464.72;;;-7.40;70.49
216;BME280;64590;48.81286795;9.14184224;2022-12-18T06:14:25;99464.59;;;-7.12;70.30
216;BME280;64590;48.81286795;9.14184224;2022-12-18T06:16:52;99469.22;;;-7.07;70.88
216;BME280;64590;48.81286795;9.14184224;2022-12-18T06:19:18;99458.97;;;-7.05;69.99
216;BME280;64590;48.81286795;9.14184224;2022-12-18T06:21:45;99458.81;;;-6.98;69.80
216;BME280;64590;48.81286795;9.14184224;2022-12-18T06:24:11;99471.72;;;-6.78;69.35
216;BME280;64590;48.81286795;9.14184224;2022-12-18T06:26:38;99467.41;;;-7.01;69.70
216;BME280;64590;48.81286795;9.14184224;2022-12-18T06:29:06;99458.13;;;-6.89;69.09
216;BME280;64590;48.81286795;9.14184224;2022-12-18T06:31:33;99469.97;;;-7.12;68.89
216;BME280;64590;48.81286795;9.14184224;2022-12-18T06:34:02;99473.72;;;-7.13;69.96
216;BME280;64590;48.81286795;9.14184224;2022-12-18T06:36:29;99472.25;;;-7.03;69.04
216;BME280;64590;48.81286795;9.14184224;2022-12-18T06:38:56;99476.09;;;-7.16;70.21
216;BME280;64590;48.81286795;9.14184224;2022-12-18T06:41:23;99486.84;;;-6.99;69.38
216;BME280;64590;48.81286795;9.14184224;2022-12-18T06:43:50;99488.44;;;-6.81;67.89
216;BME280;64590;48.81286795;9.14184224;2022-12-18T06:46:18;99478.84;;;-6.94;68.19
216;BME280;64590;48.81286795;9.14184224;2022-12-18T06:48:46;99478.16;;;-7.23;69.72
216;BME280;64590;48.81286795;9.14184224;2022-12-18T06:51:16;99479.19;;;-7.07;69.49
216;BME280;64590;48.81286795;9.14184224;2022-12-18T06:53:42;99474.81;;;-7.30;69.80
216;BME280;64590;48.81286795;9.14184224;2022-12-18T06:56:09;99474.75;;;-7.35;69.65
216;BME280;64590;48.81286795;9.14184224;2022-12-18T06:58:36;99467.09;;;-7.44;69.12
216;BME280;64590;48.81286795;9.14184224;2022-12-18T07:01:04;99475.31;;;-7.33;69.13
216;BME280;64590;48.81286795;9.14184224;2022-12-18T07:03:32;99484.00;;;-7.65;69.60
216;BME280;64590;48.81286795;9.14184224;2022-12-18T07:05:59;99492.44;;;-7.61;69.92
216;BME280;64590;48.81286795;9.14184224;2022-12-18T07:08:26;99499.34;;;-7.32;69.08
216;BME280;64590;48.81286795;9.14184224;2022-12-18T07:10:53;99497.25;;;-7.47;69.74
216;BME280;64590;48.81286795;9.14184224;2022-12-18T07:13:19;99506.78;;;-7.39;68.87
216;BME280;64590;48.81286795;9.14184224;2022-12-18T07:15:46;99500.38;;;-7.55;69.61
216;BME280;64590;48.81286795;9.14184224;2022-12-18T07:18:12;99503.66;;;-7.31;69.17
216;BME280;64590;48.81286795;9.14184224;2022-12-18T07:20:40;99511.63;;;-7.41;70.62
216;BME280;64590;48.81286795;9.14184224;2022-12-18T07:23:07;99510.28;;;-7.38;69.64
216;BME280;64590;48.81286795;9.14184224;2022-12-18T07:25:34;99506.78;;;-7.39;69.70
216;BME280;64590;48.81286795;9.14184224;2022-12-18T07:28:00;99504.41;;;-7.19;68.48
216;BME280;64590;48.81286795;9.14184224;2022-12-18T07:30:27;99505.56;;;-7.31;68.95
216;BME280;64590;48.81286795;9.14184224;2022-12-18T07:32:54;99508.03;;;-7.63;69.60
216;BME280;64590;48.81286795;9.14184224;2022-12-18T07:35:20;99515.28;;;-7.47;69.04
216;BME280;64590;48.81286795;9.14184224;2022-12-18T07:37:48;99510.16;;;-7.49;69.43
216;BME280;64590;48.81286795;9.14184224;2022-12-18T07:40:15;99515.09;;;-7.24;69.47
216;BME280;64590;48.81286795;9.14184224;2022-12-18T07:42:41;99520.94;;;-7.49;69.38
216;BME280;64590;48.81286795;9.14184224;2022-12-18T07:45:09;99520.13;;;-7.49;70.37
216;BME280;64590;48.81286795;9.14184224;2022-12-18T07:47:36;99518.16;;;-7.37;70.61
216;BME280;64590;48.81286795;9.14184224;2022-12-18T07:50:04;99520.91;;;-7.15;70.79
216;BME280;64590;48.81286795;9.14184224;2022-12-18T07:52:31;99520.19;;;-6.89;69.22
216;BME280;64590;48.81286795;9.14184224;2022-12-18T07:54:59;99524.38;;;-6.98;68.83
216;BME280;64590;48.81286795;9.14184224;2022-12-18T07:57:25;99530.88;;;-7.16;69.46
216;BME280;64590;48.81286795;9.14184224;2022-12-18T07:59:52;99537.94;;;-6.93;70.27
216;BME280;64590;48.81286795;9.14184224;2022-12-18T08:02:18;99525.97;;;-6.58;69.31
216;BME280;64590;48.81286795;9.14184224;2022-12-18T08:04:45;99525.47;;;-6.55;68.69
216;BME280;64590;48.81286795;9.14184224;2022-12-18T08:07:12;99521.69;;;-6.54;70.16
216;BME280;64590;48.81286795;9.14184224;2022-12-18T08:09:39;99524.41;;;-6.76;70.09
216;BME280;64590;48.81286795;9.14184224;2022-12-18T08:12:07;99520.31;;;-6.35;70.13
216;BME280;64590;48.81286795;9.14184224;2022-12-18T08:14:33;99527.13;;;-6.27;68.75
216;BME280;64590;48.81286795;9.14184224;2022-12-18T08:17:00;99524.25;;;-6.20;69.58
216;BME280;64590;48.81286795;9.14184224;2022-12-18T08:19:27;99529.25;;;-6.07;69.27
216;BME280;64590;48.81286795;9.14184224;2022-12-18T08:21:53;99520.91;;;-6.06;69.92
216;BME280;64590;48.81286795;9.14184224;2022-12-18T08:24:20;99522.66;;;-5.89;69.88
216;BME280;64590;48.81286795;9.14184224;2022-12-18T08:26:46;99527.47;;;-5.96;70.67
216;BME280;64590;48.81286795;9.14184224;2022-12-18T08:29:14;99518.50;;;-5.70;70.11
216;BME280;64590;48.81286795;9.14184224;2022-12-18T08:31:42;99519.13;;;-5.90;71.55
216;BME280;64590;48.81286795;9.14184224;2022-12-18T08:34:09;99518.22;;;-5.69;71.14
216;BME280;64590;48.81286795;9.14184224;2022-12-18T08:36:35;99520.72;;;-5.94;72.40
216;BME280;64590;48.81286795;9.14184224;2022-12-18T08:39:02;99519.50;;;-5.76;71.77
216;BME280;64590;48.81286795;9.14184224;2022-12-18T08:41:29;99523.44;;;-5.30;70.90
216;BME280;64590;48.81286795;9.14184224;2022-12-18T08:43:55;99523.44;;;-5.30;70.64
216;BME280;64590;48.81286795;9.14184224;2022-12-18T08:46:42;99520.63;;;-5.03;70.55
216;BME280;64590;48.81286795;9.14184224;2022-12-18T08:49:10;99523.03;;;-5.06;70.56
216;BME280;64590;48.81286795;9.14184224;2022-12-18T08:51:37;99520.25;;;-5.17;70.63
216;BME280;64590;48.81286795;9.14184224;2022-12-18T08:54:05;99526.63;;;-5.33;71.49
216;BME280;64590;48.81286795;9.14184224;2022-12-18T08:56:32;99521.00;;;-5.26;71.99
216;BME280;64590;48.81286795;9.14184224;2022-12-18T08:58:59;99514.91;;;-5.06;70.83
216;BME280;64590;48.81286795;9.14184224;2022-12-18T09:01:26;99505.28;;;-5.29;72.26
216;BME280;64590;48.81286795;9.14184224;2022-12-18T09:03:54;99509.38;;;-5.27;71.90
216;BME280;64590;48.81286795;9.14184224;2022-12-18T09:06:21;99500.59;;;-5.02;71.55
216;BME280;64590;48.81286795;9.14184224;2022-12-18T09:08:49;99506.28;;;-4.98;70.74
216;BME280;64590;48.81286795;9.14184224;2022-12-18T09:11:20;99505.78;;;-4.90;70.54
216;BME280;64590;48.81286795;9.14184224;2022-12-18T09:13:47;99497.34;;;-5.41;72.20
216;BME280;64590;48.81286795;9.14184224;2022-12-18T09:16:14;99499.41;;;-5.16;72.28
216;BME280;64590;48.81286795;9.14184224;2022-12-18T09:18:41;99481.19;;;-5.31;73.39
216;BME280;64590;48.81286795;9.14184224;2022-12-18T09:21:11;99493.16;;;-5.22;72.24
216;BME280;64590;48.81286795;9.14184224;2022-12-18T09:23:38;99492.81;;;-4.88;72.00
216;BME280;64590;48.81286795;9.14184224;2022-12-18T09:26:04;99503.75;;;-5.15;74.05
216;BME280;64590;48.81286795;9.14184224;2022-12-18T09:28:31;99484.34;;;-5.02;73.71
216;BME280;64590;48.81286795;9.14184224;2022-12-18T09:30:58;99480.84;;;-4.97;73.68
216;BME280;64590;48.81286795;9.14184224;2022-12-18T09:33:24;99484.75;;;-4.73;71.95
216;BME280;64590;48.81286795;9.14184224;2022-12-18T09:35:51;99480.78;;;-4.45;71.66
216;BME280;64590;48.81286795;9.14184224;2022-12-18T09:38:19;99490.88;;;-4.30;71.37
216;BME280;64590;48.81286795;9.14184224;2022-12-18T09:40:48;99485.94;;;-4.43;71.51
216;BME280;64590;48.81286795;9.14184224;2022-12-18T09:43:18;99486.00;;;-4.28;71.30
216;BME280;64590;48.81286795;9.14184224;2022-12-18T09:45:51;99490.00;;;-4.46;72.58
216;BME280;64590;48.81286795;9.14184224;2022-12-18T09:48:23;99490.56;;;-4.39;72.45
216;BME280;64590;48.81286795;9.14184224;2022-12-18T09:50:51;99475.44;;;-4.19;71.13
216;BME280;64590;48.81286795;9.14184224;2022-12-18T09:53:26;99471.13;;;-4.25;71.29
216;BME280;64590;48.81286795;9.14184224;2022-12-18T09:55:55;99466.50;;;-4.20;71.86
216;BME280;64590;48.81286795;9.14184224;2022-12-18T09:58:28;99472.97;;;-4.36;72.54
216;BME280;64590;48.81286795;9.14184224;2022-12-18T10:00:56;99469.50;;;-4.11;72.13
216;BME280;64590;48.81286795;9.14184224;2022-12-18T10:03:22;99478.22;;;-3.89;71.44
216;BME280;64590;48.81286795;9.14184224;2022-12-18T10:06:02;99472.53;;;-3.87;70.92
216;BME280;64590;48.81286795;9.14184224;2022-12-18T10:08:42;99477.63;;;-4.21;72.90
216;BME280;64590;48.81286795;9.14184224;2022-12-18T10:11:25;99478.19;;;-3.94;72.37
216;BME280;64590;48.81286795;9.14184224;2022-12-18T10:13:57;99480.66;;;-3.87;71.55
216;BME280;64590;48.81286795;9.14184224;2022-12-18T10:16:31;99478.69;;;-4.17;73.72
216;BME280;64590;48.81286795;9.14184224;2022-12-18T10:19:16;99486.88;;;-3.87;73.03
216;BME280;64590;48.81286795;9.14184224;2022-12-18T10:21:49;99493.16;;;-3.71;72.51
216;BME280;64590;48.81286795;9.14184224;2022-12-18T10:24:25;99492.31;;;-3.56;71.43
216;BME280;64590;48.81286795;9.14184224;2022-12-18T10:26:55;99491.78;;;-3.38;72.02
216;BME280;64590;48.81286795;9.14184224;2022-12-18T10:29:27;99488.25;;;-3.69;72.00
216;BME280;64590;48.81286795;9.14184224;2022-12-18T10:31:53;99490.41;;;-3.41;71.38
216;BME280;64590;48.81286795;9.14184224;2022-12-18T10:34:20;99481.47;;;-3.51;72.21
216;BME280;64590;48.81286795;9.14184224;2022-12-18T10:36:47;99484.75;;;-3.64;73.56
216;BME280;64590;48.81286795;9.14184224;2022-12-18T10:39:16;99490.72;;;-3.73;73.28
216;BME280;64590;48.81286795;9.14184224;2022-12-18T10:41:44;99490.41;;;-3.51;72.15
216;BME280;64590;48.81286795;9.14184224;2022-12-18T10:44:16;99488.78;;;-3.67;73.58
216;BME280;64590;48.81286795;9.14184224;2022-12-18T10:46:44;99475.22;;;-3.57;74.72
216;BME280;64590;48.81286795;9.14184224;2022-12-18T10:49:21;99478.72;;;-3.16;72.73
216;BME280;64590;48.81286795;9.14184224;2022-12-18T10:51:49;99476.31;;;-3.37;72.90
216;BME280;64590;48.81286795;9.14184224;2022-12-18T10:54:17;99483.06;;;-3.20;72.14
216;BME280;64590;48.81286795;9.14184224;2022-12-18T10:56:46;99481.16;;;-3.09;72.97
216;BME280;64590;48.81286795;9.14184224;2022-12-18T10:59:14;99490.09;;;-3.03;72.12
216;BME280;64590;48.81286795;9.14184224;2022-12-18T11:01:52;99487.03;;;-2.81;72.19
216;BME280;64590;48.81286795;9.14184224;2022-12-18T11:04:21;99481.41;;;-3.05;72.20
216;BME280;64590;48.81286795;9.14184224;2022-12-18T11:06:59;99481.38;;;-2.85;72.79
216;BME280;64590;48.81286795;9.14184224;2022-12-18T11:09:27;99478.38;;;-2.83;71.63
216;BME280;64590;48.81286795;9.14184224;2022-12-18T11:11:57;99468.22;;;-2.63;71.14
216;BME280;64590;48.81286795;9.14184224;2022-12-18T11:14:26;99469.41;;;-2.84;71.82
216;BME280;64590;48.81286795;9.14184224;2022-12-18T11:16:54;99462.88;;;-2.78;71.53
216;BME280;64590;48.81286795;9.14184224;2022-12-18T11:19:28;99458.50;;;-2.69;72.77
216;BME280;64590;48.81286795;9.14184224;2022-12-18T11:21:56;99449.03;;;-2.27;70.22
216;BME280;64590;48.81286795;9.14184224;2022-12-18T11:24:27;99454.34;;;-2.51;70.52
216;BME280;64590;48.81286795;9.14184224;2022-12-18T11:26:57;99451.84;;;-2.47;70.95
216;BME280;64590;48.81286795;9.14184224;2022-12-18T11:29:31;99447.75;;;-2.40;70.64
216;BME280;64590;48.81286795;9.14184224;2022-12-18T11:32:22;99442.88;;;-1.98;69.51
216;BME280;64590;48.81286795;9.14184224;2022-12-18T11:34:57;99441.97;;;-2.28;70.70
216;BME280;64590;48.81286795;9.14184224;2022-12-18T11:37:25;99448.41;;;-2.14;70.96
216;BME280;64590;48.81286795;9.14184224;2022-12-18T11:39:56;99444.81;;;-2.04;69.79
216;BME280;64590;48.81286795;9.14184224;2022-12-18T11:42:28;99441.63;;;-2.16;70.71
216;BME280;64590;48.81286795;9.14184224;2022-12-18T11:45:02;99443.19;;;-2.10;70.59
216;BME280;64590;48.81286795;9.14184224;2022-12-18T11:47:37;99440.19;;;-2.09;70.92
216;BME280;64590;48.81286795;9.14184224;2022-12-18T11:50:17;99432.94;;;-1.79;70.61
216;BME280;64590;48.81286795;9.14184224;2022-12-18T11:52:45;99432.00;;;-1.64;70.22